createdAt,value
2023-05-13T00:04:38.624Z,6.41
2023-05-13T00:09:45.819Z,6.11
2023-05-13T00:14:53.090Z,6.86
2023-05-13T00:20:00.348Z,6.89
2023-05-13T00:25:07.883Z,6.71
2023-05-13T00:30:15.123Z,7.34
2023-05-13T00:35:22.492Z,7.10
2023-05-13T00:40:29.809Z,6.63
2023-05-13T00:45:37.249Z,6.31
2023-05-13T00:50:44.468Z,6.76
2023-05-13T00:55:51.885Z,6.19
2023-05-13T01:00:59.160Z,6.70
2023-05-13T01:06:06.577Z,7.04
2023-05-13T01:11:13.773Z,6.66
2023-05-13T01:16:21.368Z,7.41
2023-05-13T01:21:28.519Z,7.12
2023-05-13T01:26:35.921Z,7.62
2023-05-13T01:31:43.229Z,7.11
2023-05-13T01:36:50.510Z,6.88
2023-05-13T01:42:00.436Z,7.11
2023-05-13T01:47:07.894Z,6.66
2023-05-13T01:52:15.170Z,6.87
2023-05-13T01:57:22.557Z,6.66
2023-05-13T02:02:29.830Z,6.77
2023-05-13T02:07:37.124Z,7.05
2023-05-13T02:12:44.327Z,6.53
2023-05-13T02:17:51.597Z,6.25
2023-05-13T02:22:58.845Z,6.67
2023-05-13T02:28:06.234Z,6.17
2023-05-13T02:33:13.540Z,6.45
2023-05-13T02:38:20.771Z,6.73
2023-05-13T02:43:28.027Z,7.07
2023-05-13T02:48:35.511Z,6.84
2023-05-13T02:53:42.682Z,7.77
2023-05-13T02:58:49.925Z,7.72
2023-05-13T03:03:57.091Z,6.69
2023-05-13T03:09:04.427Z,7.33
2023-05-13T03:14:11.624Z,6.76
2023-05-13T03:19:19.041Z,7.19
2023-05-13T03:24:26.230Z,8.39
2023-05-13T03:29:33.752Z,7.33
2023-05-13T03:34:41.026Z,7.75
2023-05-13T03:39:48.346Z,7.49
2023-05-13T03:44:55.663Z,7.10
2023-05-13T03:50:03.132Z,7.37
2023-05-13T03:55:10.393Z,7.72
2023-05-13T04:00:17.770Z,7.25
2023-05-13T04:05:24.980Z,7.72
2023-05-13T04:10:32.367Z,7.47
2023-05-13T04:15:39.632Z,7.89
2023-05-13T04:20:47.083Z,7.82
2023-05-13T04:25:54.260Z,8.12
2023-05-13T04:31:01.730Z,7.67
2023-05-13T04:36:08.870Z,7.56
2023-05-13T04:41:16.260Z,7.82
2023-05-13T04:46:23.512Z,6.15
2023-05-13T04:51:30.790Z,7.03
2023-05-13T04:56:38.078Z,6.09
2023-05-13T05:01:45.560Z,6.66
2023-05-13T05:06:52.739Z,6.20
2023-05-13T05:12:00.075Z,6.53
2023-05-13T05:17:07.266Z,6.40
2023-05-13T05:22:14.756Z,6.34
2023-05-13T05:27:22.021Z,5.74
2023-05-13T05:32:29.416Z,5.70
2023-05-13T05:37:36.720Z,5.45
2023-05-13T05:42:44.104Z,5.33
2023-05-13T05:47:51.305Z,4.90
2023-05-13T05:52:58.635Z,4.77
2023-05-13T05:58:05.857Z,4.93
2023-05-13T06:03:13.241Z,4.79
2023-05-13T06:08:20.375Z,4.65
2023-05-13T06:13:27.711Z,4.62
2023-05-13T06:18:34.928Z,4.84
2023-05-13T06:23:42.573Z,4.79
2023-05-13T06:28:49.752Z,4.63
2023-05-13T06:33:57.099Z,4.70
2023-05-13T06:39:04.368Z,4.53
2023-05-13T06:44:12.103Z,4.45
2023-05-13T06:49:19.276Z,4.40
2023-05-13T06:54:26.633Z,4.43
2023-05-13T06:59:33.917Z,4.42
2023-05-13T07:04:41.294Z,4.68
2023-05-13T07:09:48.506Z,4.47
2023-05-13T07:14:55.871Z,4.13
2023-05-13T07:20:03.088Z,4.20
2023-05-13T07:25:10.475Z,3.83
2023-05-13T07:30:18.032Z,4.37
2023-05-13T07:35:25.402Z,3.61
2023-05-13T07:40:32.644Z,3.91
2023-05-13T07:45:40.058Z,4.20
2023-05-13T07:50:47.326Z,3.75
2023-05-13T07:55:54.701Z,3.63
2023-05-13T08:01:01.965Z,3.38
2023-05-13T08:06:09.497Z,3.38
2023-05-13T08:11:16.870Z,3.31
2023-05-13T08:16:24.241Z,3.62
2023-05-13T08:21:31.537Z,3.54
2023-05-13T08:26:39.051Z,3.32
2023-05-13T08:31:46.305Z,3.41
2023-05-13T08:36:53.691Z,3.33
2023-05-13T08:42:00.939Z,3.08
2023-05-13T08:47:08.243Z,3.21
2023-05-13T08:52:15.500Z,3.21
2023-05-13T08:57:23.011Z,3.02
2023-05-13T09:02:30.311Z,2.67
2023-05-13T09:07:37.579Z,2.83
2023-05-13T09:12:44.852Z,2.70
2023-05-13T09:17:52.389Z,2.64
2023-05-13T09:22:59.523Z,3.08
2023-05-13T09:28:06.850Z,3.05
2023-05-13T09:33:14.322Z,2.35
2023-05-13T09:38:21.590Z,2.82
2023-05-13T09:43:28.810Z,2.00
2023-05-13T09:48:36.276Z,2.01
2023-05-13T09:53:43.726Z,2.03
2023-05-13T09:58:51.134Z,1.85
2023-05-13T10:03:58.308Z,2.12
2023-05-13T10:09:05.724Z,1.89
2023-05-13T10:14:12.892Z,2.02
2023-05-13T10:19:20.362Z,1.88
2023-05-13T10:24:27.630Z,2.00
2023-05-13T10:29:35.106Z,1.66
2023-05-13T10:34:42.387Z,1.60
2023-05-13T10:39:49.701Z,1.66
2023-05-13T10:44:57.026Z,1.61
2023-05-13T10:50:04.436Z,1.44
2023-05-13T10:55:11.829Z,1.80
2023-05-13T11:00:19.508Z,1.48
2023-05-13T11:05:26.508Z,1.52
2023-05-13T11:10:35.508Z,1.44
2023-05-13T11:15:42.718Z,1.75
2023-05-13T11:20:52.908Z,1.51
2023-05-13T11:25:57.150Z,1.76
2023-05-13T11:31:04.671Z,1.72
2023-05-13T11:36:11.915Z,2.04
2023-05-13T11:41:19.300Z,1.84
2023-05-13T11:46:26.614Z,1.68
2023-05-13T11:51:34.049Z,1.42
2023-05-13T11:56:41.351Z,1.56
2023-05-13T12:01:48.782Z,1.97
2023-05-13T12:06:56.000Z,2.27
2023-05-13T12:12:03.378Z,2.18
2023-05-13T12:17:10.680Z,2.25
2023-05-13T12:22:18.000Z,1.76
2023-05-13T12:27:25.295Z,1.97
2023-05-13T12:32:32.803Z,2.05
2023-05-13T12:37:40.031Z,2.29
2023-05-13T12:42:47.392Z,2.22
2023-05-13T12:47:54.728Z,2.35
2023-05-13T12:53:02.000Z,2.20
2023-05-13T12:58:09.284Z,2.19
2023-05-13T13:03:16.849Z,2.03
2023-05-13T13:08:23.956Z,1.88
2023-05-13T13:13:31.406Z,2.09
2023-05-13T13:18:38.649Z,1.90
2023-05-13T13:23:45.995Z,2.31
2023-05-13T13:28:53.242Z,2.07
2023-05-13T13:34:00.705Z,2.26
2023-05-13T13:39:07.996Z,2.20
2023-05-13T13:44:15.278Z,2.23
2023-05-13T13:49:24.005Z,2.49
2023-05-13T13:54:29.445Z,2.65
2023-05-13T13:59:36.691Z,2.56
2023-05-13T14:04:44.027Z,2.58
2023-05-13T14:09:51.301Z,2.75
2023-05-13T14:14:58.572Z,2.60
2023-05-13T14:20:05.839Z,2.73
2023-05-13T14:25:13.226Z,2.44
2023-05-13T14:30:20.598Z,2.34
2023-05-13T14:35:32.434Z,2.53
2023-05-13T14:40:29.631Z,2.44
2023-05-13T14:45:36.962Z,2.62
2023-05-13T14:50:44.247Z,2.73
2023-05-13T14:55:51.742Z,2.46
2023-05-13T15:00:58.858Z,2.39
2023-05-13T15:06:06.209Z,2.58
2023-05-13T15:11:13.428Z,2.70
2023-05-13T15:16:20.812Z,3.27
2023-05-13T15:21:27.991Z,3.29
2023-05-13T15:26:35.370Z,3.19
2023-05-13T15:31:42.568Z,3.20
2023-05-13T15:36:49.982Z,3.31
2023-05-13T15:41:57.245Z,3.20
2023-05-13T15:47:04.682Z,3.21
2023-05-13T15:52:11.830Z,3.18
2023-05-13T15:57:19.298Z,2.84
2023-05-13T16:02:26.559Z,2.99
2023-05-13T16:07:33.957Z,3.03
2023-05-13T16:12:41.233Z,3.00
2023-05-13T16:17:48.692Z,2.93
2023-05-13T16:22:55.938Z,3.12
2023-05-13T16:28:03.371Z,3.03
2023-05-13T16:33:10.727Z,3.06
2023-05-13T16:38:18.159Z,3.30
2023-05-13T16:43:25.411Z,2.99
2023-05-13T16:48:32.885Z,2.74
2023-05-13T16:53:40.039Z,2.68
2023-05-13T16:58:47.450Z,25.42
2023-05-13T17:03:54.654Z,10.73
2023-05-13T17:09:01.971Z,4.33
2023-05-13T17:14:09.154Z,3.78
2023-05-13T17:19:16.709Z,2.91
2023-05-13T17:24:23.963Z,2.60
2023-05-13T17:29:31.398Z,2.76
2023-05-13T17:34:38.612Z,2.73
2023-05-13T17:39:45.962Z,2.95
2023-05-13T17:44:53.332Z,2.81
2023-05-13T17:50:00.693Z,2.74
2023-05-13T17:55:07.917Z,3.07
2023-05-13T18:00:15.290Z,2.96
2023-05-13T18:05:22.616Z,2.98
2023-05-13T18:10:30.026Z,2.86
2023-05-13T18:15:37.303Z,3.00
2023-05-13T18:20:44.826Z,2.91
2023-05-13T18:25:56.035Z,2.69
2023-05-13T18:30:58.880Z,3.30
2023-05-13T18:36:06.138Z,3.08
2023-05-13T18:41:13.484Z,2.89
2023-05-13T18:46:20.824Z,3.43
2023-05-13T18:51:28.149Z,2.82
2023-05-13T18:56:35.437Z,2.66
2023-05-13T19:01:42.947Z,2.75
2023-05-13T19:06:50.212Z,3.04
2023-05-13T19:11:57.570Z,2.93
2023-05-13T19:17:04.855Z,3.28
2023-05-13T19:22:12.299Z,3.33
2023-05-13T19:27:19.553Z,3.00
2023-05-13T19:32:26.981Z,3.42
2023-05-13T19:37:34.225Z,3.27
2023-05-13T19:42:41.585Z,3.10
2023-05-13T19:47:48.874Z,3.90
2023-05-13T19:52:56.154Z,3.71
2023-05-13T19:58:03.378Z,4.52
2023-05-13T20:03:11.056Z,3.97
2023-05-13T20:08:18.152Z,5.10
2023-05-13T20:13:25.597Z,5.15
2023-05-13T20:18:32.967Z,5.05
2023-05-13T20:23:40.301Z,5.28
2023-05-13T20:28:47.543Z,4.97
2023-05-13T20:33:55.005Z,5.02
2023-05-13T20:39:02.260Z,4.07
2023-05-13T20:44:09.765Z,4.08
2023-05-13T20:49:17.069Z,4.42
2023-05-13T20:54:24.499Z,3.91
2023-05-13T20:59:31.819Z,3.96
2023-05-13T21:04:39.320Z,4.47
2023-05-13T21:09:46.655Z,4.02
2023-05-13T21:14:54.037Z,3.58
2023-05-13T21:20:01.326Z,3.98
2023-05-13T21:25:08.645Z,4.32
2023-05-13T21:30:15.938Z,4.31
2023-05-13T21:35:23.404Z,4.56
2023-05-13T21:40:30.736Z,4.35
2023-05-13T21:45:38.082Z,4.66
2023-05-13T21:50:45.314Z,4.97
2023-05-13T21:55:52.799Z,4.42
2023-05-13T22:01:00.260Z,4.62
2023-05-13T22:06:07.395Z,4.55
2023-05-13T22:11:14.772Z,4.64
2023-05-13T22:16:22.176Z,4.32
2023-05-13T22:21:29.301Z,4.96
2023-05-13T22:26:36.656Z,4.62
2023-05-13T22:31:43.925Z,4.84
2023-05-13T22:36:51.306Z,5.51
2023-05-13T22:41:58.558Z,5.31
2023-05-13T22:47:07.135Z,5.97
2023-05-13T22:52:14.448Z,5.77
2023-05-13T22:57:21.976Z,5.05
2023-05-13T23:02:29.250Z,5.61
2023-05-13T23:07:36.672Z,5.27
2023-05-13T23:12:43.942Z,5.48
2023-05-13T23:17:51.450Z,5.49
2023-05-13T23:22:58.595Z,5.85
2023-05-13T23:28:05.919Z,6.08
2023-05-13T23:33:13.204Z,6.30
2023-05-13T23:38:20.683Z,6.03
2023-05-13T23:43:28.044Z,6.36
2023-05-13T23:48:35.497Z,6.64
2023-05-13T23:53:42.747Z,6.35
2023-05-13T23:58:50.181Z,6.26
